Terminal Aerodrome Forecast
Issued by NWS Cleveland, OH

Home | Current Version | Previous Version | Graphics & Text | Print | Product List | Glossary Off
Versions: 1 2 3 4 5 6 7 8 9 10 11 12 13 14 15 16 17 18 19 20 21 22 23 24 25 26 27 28 29

000
FTUS41 KCLE 220956 AAB
TAFCLE
TAF AMD
KCLE 220956Z 2210/2312 18010KT P6SM VCSH OVC035
     FM221700 18015G25KT P6SM BKN035 BKN080
     FM222200 18012KT 4SM -RA BR OVC015
     FM230300 20012KT 5SM BR OVC012=

USA.gov is the U.S. government's official web portal to all federal, state and local government web resources and services.